• Join FlightAware (Why Join?)
  • Login
  • US Flag 
05:42PM EDT


 

Airport Tracker/Info


-or-


 

Live Flight TrackerFlight Track Log ✈ SWA1718 ✈ 19-Apr-2013 ✈ KMDW - KBUF

Flight Track Log - Related Links

Times and Time Zones

All times are in EDT time to prevent confusion due to time zone crossing. See the SWA1718 flight status page for this flight to view local times or setup timezone preferences in your user account.

Time Position Orientation Groundspeed Altitude Reporting Facility
EDT Latitude Longitude Course Direction KTS MPH feet Rate Location/Type
10:16PM 41.8167 -87.7667 88° East 193 222 2,300  Level Chicago TRACON
10:18PM 41.8211 -87.6217 88° East 291 335 7,200 3,120 Climbing Chicago Center
10:19PM 41.8219 -87.5122 89° East 294 338 10,300 2,580 Climbing Chicago Center
10:20PM 41.8153 -87.3861 94° East 327 376 12,500 2,160 Climbing Chicago Center
10:21PM 41.7922 -87.2489 103° East 366 421 14,800 2,400 Climbing Chicago Center
10:22PM 41.7683 -87.1033 102° East 391 450 17,500 2,460 Climbing Chicago Center
10:23PM 41.7633 -86.9528 92° East 409 471 19,900 2,160 Climbing Chicago Center
10:24PM 41.7658 -86.7981 89° East 414 476 22,000 1,980 Climbing Chicago Center
10:25PM 41.7847 -86.6361 81° East 429 494 24,000 1,680 Climbing Chicago Center
10:26PM 41.8067 -86.4736 80° East 441 507 25,500 1,320 Climbing Chicago Center
10:27PM 41.8275 -86.3058 80° East 455 524 26,700 1,500 Climbing Chicago Center
10:28PM 41.8481 -86.1325 81° East 465 535 28,600 1,560 Climbing Chicago Center
10:29PM 41.8750 -85.9239 80° East 473 544 29,900 1,260 Climbing Chicago Center
10:30PM 41.8964 -85.7442 81° East 483 556 31,200 1,320 Climbing Chicago Center
10:31PM 41.9183 -85.5664 81° East 480 552 32,600 1,200 Climbing Chicago Center
10:32PM 41.9397 -85.3867 81° East 482 555 33,700 660 Climbing Chicago Center
10:33PM 41.9628 -85.2053 80° East 470 541 34,000 120 Climbing Cleveland Center
10:34PM 41.9822 -85.0253 82° East 482 555 34,000  Level Cleveland Center
10:35PM 42.0039 -84.8394 81° East 495 570 34,000  Level Cleveland Center
10:36PM 42.0253 -84.6533 81° East 501 577 34,000  Level Cleveland Center
10:37PM 42.0433 -84.4922 81° East 495 570 34,000  Level Cleveland Center
10:38PM 42.0642 -84.3117 81° East 490 564 34,000  Level Cleveland Center
10:39PM 42.0808 -84.1083 84° East 495 570 34,000  Level Cleveland Center
10:40PM 42.0989 -83.9247 82° East 495 570 34,000  Level Cleveland Center
10:41PM 42.1183 -83.7578 81° East 500 575 34,000  Level Cleveland Center
10:42PM 42.1383 -83.5569 82° East 500 575 34,000  Level Cleveland Center
10:43PM 42.1575 -83.3703 82° East 500 575 34,000  Level Cleveland Center
10:44PM 42.1719 -83.2028 83° East 495 570 34,000  Level Cleveland Center
10:45PM 42.1906 -83.0186 82° East 500 575 34,000  Level Cleveland Center
10:46PM 42.2089 -82.8342 82° East 500 575 34,000  Level Cleveland Center
10:47PM 42.2250 -82.6442 83° East 500 575 34,000 -240 Level Cleveland Center
10:48PM 42.2428 -82.4539 83° East 500 575 33,600 -660 Descending Cleveland Center
10:49PM 42.2603 -82.2608 83° East 500 575 32,700 -960 Descending Cleveland Center
10:50PM 42.2797 -82.0706 82° East 506 582 31,700 -1,020 Descending Cleveland Center
10:51PM 42.2922 -81.8856 85° East 505 581 30,700 -1,080 Descending Cleveland Center
10:52PM 42.3300 -81.6814 76° East 505 581 29,600 -1,080 Descending Cleveland Center
10:53PM 42.3711 -81.4994 73° East 500 575 28,600 -1,020 Descending Cleveland Center
10:54PM 42.4100 -81.3172 74° East 500 575 27,600 -840 Descending Cleveland Center
10:55PM 42.4506 -81.1375 73° East 494 568 27,000 -300 Descending Cleveland Center
10:56PM 42.4889 -80.9547 74° East 493 567 27,000  Level Cleveland Center
10:57PM 42.5289 -80.7747 73° East 498 573 27,000  Level Cleveland Center
10:58PM 42.5686 -80.5861 74° East 506 582 27,000 -900 Level Cleveland Center
10:59PM 42.6058 -80.4028 75° East 506 582 25,300 -1,920 Descending Cleveland Center
11:00PM 42.6389 -80.2417 74° East 506 582 23,200 -2,340 Descending Cleveland Center
11:01PM 42.6758 -80.0608 74° East 495 570 20,700 -2,580 Descending Cleveland Center
11:02PM 42.7164 -79.8767 73° East 475 547 18,100 -2,520 Descending Cleveland Center
11:03PM 42.7489 -79.7181 74° East 460 529 15,700 -2,340 Descending Cleveland Center
11:04PM 42.7808 -79.5650 74° East 431 496 13,500 -2,220 Descending Cleveland Center
11:05PM 42.8108 -79.4172 74° East 407 468 11,300 -1,680 Descending Cleveland Center
11:06PM 42.8364 -79.2836 75° East 385 443 10,200 -1,140 Descending Cleveland Center
11:07PM 42.8558 -79.1700 77° East 345 397 9,100 -1,500 Descending Cleveland Center
11:08PM 42.8814 -79.0447 74° East 315 362 7,300 -1,800 Descending Cleveland Center
11:09PM 42.9092 -78.9336 71° East 310 357 5,600 -1,620 Descending Cleveland Center
11:10PM 42.9706 -78.8553 43° Northeast 298 343 4,100 -840 Descending Cleveland Center
11:11PM 43.0194 -78.7886 45° Northeast 277 319 4,000 -60 Descending Cleveland Center
11:12PM 43.0725 -78.7217 43° Northeast 262 302 4,000 -420 Level Cleveland Center
11:13PM 43.0669 -78.6367 95° East 218 251 3,200 -780 Descending Cleveland Center
11:14PM 43.0167 -78.6333 177° South 136 157 2,300 -660 Descending Buffalo TRACON
11:15PM 42.9833 -78.6667 216° Southwest 141 162 1,800 -600 Descending Buffalo TRACON
11:16PM 42.9667 -78.7000 236° Southwest 112 129 1,200 -600 Descending Buffalo TRACON